Terminal Aerodrome Forecast
Issued by NWS

Home | Current Version | Previous Version | Text Only | Print | Product List | Glossary On
Versions: 1 2 3 4 5 6 7 8 9 10 11 12 13
000
FTUS43 KJKL 012100 AAA
TAFSME
TAF AMD
KSME 012152Z 0122/0218 19009G15KT P6SM -RA BKN020 OVC050
     FM012200 21010G20KT 3SM -RA BR OVC015
     FM020800 26010G20KT 2SM -SN OVC015
     FM021300 29010G18KT P6SM VCSH BKN010 OVC020=

USA.gov is the U.S. government's official web portal to all federal, state and local government web resources and services.